Time;durP1;ratioP1;P1;durP2;ratioP2;P2;SDS_P1;SDS_P2;PMS_P1;PMS_P2;Temp;Humidity;BMP_temperature;BMP_pressure;BME280_temperature;BME280_humidity;BME280_pressure;Samples;Min_cycle;Max_cycle;Signal;HPM_P1;HPM_P2
2022/11/10 00:09:09;;;;;;;;;;;;;;;;;;5052419;28;985;-42
2022/11/10 00:11:55;;;;;;;;;;;;;;;;;;5052024;28;1131;-45
2022/11/10 00:17:45;;;;;;;;;;;;;;;;;;5051977;28;2005;-47
2022/11/10 00:20:31;;;;;;;;;;;;;;;;;;5051895;28;1194;-45
2022/11/10 00:23:17;;;;;;;;;;;;;;;;;;5051936;28;992;-44
2022/11/10 00:26:09;;;;;;;;;;;;;;;;;;5051826;28;1057;-44
2022/11/10 00:28:55;;;;;;;;;;;;;;;;;;5051851;28;916;-45
2022/11/10 00:31:41;;;;;;;;;;;;;;;;;;5051725;28;996;-44
2022/11/10 00:34:27;;;;;;;;;;;;;;;;;;5050704;28;1292;-44
2022/11/10 00:37:13;;;;;;;;;;;;;;;;;;5050376;28;1977;-44
2022/11/10 00:39:59;;;;;;;;;;;;;;;;;;5050957;28;1009;-44
2022/11/10 00:42:45;;;;;;;;;;;;;;;;;;5049995;28;1186;-44
2022/11/10 00:45:31;;;;;;;;;;;;;;;;;;5051299;28;1033;-46
2022/11/10 00:48:17;;;;;;;;;;;;;;;;;;5051406;28;969;-48
2022/11/10 00:51:03;;;;;;;;;;;;;;;;;;5051409;28;1489;-45
2022/11/10 00:53:49;;;;;;;;;;;;;;;;;;5051319;28;1419;-44
2022/11/10 00:56:35;;;;;;;;;;;;;;;;;;5051198;28;1249;-46
2022/11/10 00:59:21;;;;;;;;;;;;;;;;;;5050732;28;2097;-47
2022/11/10 01:02:07;;;;;;;;;;;;;;;;;;5051412;28;1286;-45
2022/11/10 01:04:53;;;;;;;;;;;;;;;;;;5051057;28;1204;-46
2022/11/10 01:07:38;;;;;;;;;;;;;;;;;;5050930;28;1400;-45
2022/11/10 01:10:25;;;;;;;;;;;;;;;;;;5050804;28;1037;-47
2022/11/10 01:13:11;;;;;;;;;;;;;;;;;;5060817;28;1550;-45
2022/11/10 01:16:02;;;;;;;;;;;;;;;;;;5050801;28;1177;-49
2022/11/10 01:18:51;;;;;;;;;;;;;;;;;;5046395;28;1983;-43
2022/11/10 01:21:38;;;;;;;;;;;;;;;;;;5030897;28;1202;-45
2022/11/10 01:24:24;;;;;;;;;;;;;;;;;;5031282;28;909;-45
2022/11/10 01:27:09;;;;;;;;;;;;;;;;;;5037404;28;1066;-46
2022/11/10 01:29:55;;;;;;;;;;;;;;;;;;5050847;28;1236;-47
2022/11/10 01:32:41;;;;;;;;;;;;;;;;;;5051081;28;1087;-46
2022/11/10 01:35:27;;;;;;;;;;;;;;;;;;5050679;28;988;-46
2022/11/10 01:38:13;;;;;;;;;;;;;;;;;;5050793;28;1911;-46
2022/11/10 01:41:00;;;;;;;;;;;;;;;;;;5050903;28;967;-48
2022/11/10 01:43:46;;;;;;;;;;;;;;;;;;5050737;28;1208;-46
2022/11/10 01:46:31;;;;;;;;;;;;;;;;;;5050712;28;1174;-47
2022/11/10 01:49:19;;;;;;;;;;;;;;;;;;5050818;28;1058;-45
2022/11/10 01:52:08;;;;;;;;;;;;;;;;;;5050697;28;1016;-47
2022/11/10 01:54:54;;;;;;;;;;;;;;;;;;5030920;28;1450;-47
2022/11/10 01:57:41;;;;;;;;;;;;;;;;;;5030921;28;1971;-46
2022/11/10 02:00:26;;;;;;;;;;;;;;;;;;5030636;28;974;-45
2022/11/10 02:03:20;;;;;;;;;;;;;;;;;;5030731;28;1050;-47
2022/11/10 02:06:07;;;;;;;;;;;;;;;;;;5030867;28;1462;-45
2022/11/10 02:08:54;;;;;;;;;;;;;;;;;;5030671;28;1195;-45
2022/11/10 02:11:41;;;;;;;;;;;;;;;;;;5030958;28;1181;-48
2022/11/10 02:14:27;;;;;;;;;;;;;;;;;;5030522;28;899;-48
2022/11/10 02:17:13;;;;;;;;;;;;;;;;;;5030488;28;1531;-46
2022/11/10 02:20:03;;;;;;;;;;;;;;;;;;5032399;28;1067;-48
2022/11/10 02:22:49;;;;;;;;;;;;;;;;;;5034436;28;1324;-47
2022/11/10 02:25:35;;;;;;;;;;;;;;;;;;5034280;28;983;-49
2022/11/10 02:28:21;;;;;;;;;;;;;;;;;;5050313;28;1264;-44
2022/11/10 02:31:08;;;;;;;;;;;;;;;;;;5034508;28;1207;-47
2022/11/10 02:33:54;;;;;;;;;;;;;;;;;;5034147;28;941;-50
2022/11/10 02:36:40;;;;;;;;;;;;;;;;;;5034570;28;1244;-49
2022/11/10 02:39:25;;;;;;;;;;;;;;;;;;5033979;28;1977;-47
2022/11/10 02:42:11;;;;;;;;;;;;;;;;;;5034088;28;1043;-48
2022/11/10 02:44:58;;;;;;;;;;;;;;;;;;5041160;28;938;-48
2022/11/10 02:47:44;;;;;;;;;;;;;;;;;;5053632;28;1058;-48
2022/11/10 02:50:30;;;;;;;;;;;;;;;;;;5053224;28;945;-45
2022/11/10 02:53:16;;;;;;;;;;;;;;;;;;5052953;28;1146;-45
2022/11/10 02:56:02;;;;;;;;;;;;;;;;;;5052663;28;920;-46
2022/11/10 02:58:50;;;;;;;;;;;;;;;;;;5053252;28;1934;-45
2022/11/10 03:01:36;;;;;;;;;;;;;;;;;;5053443;28;968;-47
2022/11/10 03:04:22;;;;;;;;;;;;;;;;;;5052510;28;1260;-47
2022/11/10 03:07:09;;;;;;;;;;;;;;;;;;5053307;28;1187;-47
2022/11/10 03:09:56;;;;;;;;;;;;;;;;;;5053379;28;1392;-48
2022/11/10 03:12:43;;;;;;;;;;;;;;;;;;5053277;28;1231;-47
2022/11/10 03:15:29;;;;;;;;;;;;;;;;;;5053155;28;1346;-45
2022/11/10 03:18:15;;;;;;;;;;;;;;;;;;5052681;28;1917;-47
2022/11/10 03:21:01;;;;;;;;;;;;;;;;;;5053366;28;1214;-47
2022/11/10 03:23:48;;;;;;;;;;;;;;;;;;5052974;28;988;-47
2022/11/10 03:26:33;;;;;;;;;;;;;;;;;;5052775;28;1125;-46
2022/11/10 03:29:19;;;;;;;;;;;;;;;;;;5052055;28;1316;-47
2022/11/10 03:32:05;;;;;;;;;;;;;;;;;;5052342;28;1337;-52
2022/11/10 03:34:51;;;;;;;;;;;;;;;;;;5052813;28;960;-46
2022/11/10 03:37:36;;;;;;;;;;;;;;;;;;5052945;28;1399;-47
2022/11/10 03:40:25;;;;;;;;;;;;;;;;;;5052625;28;1180;-47
2022/11/10 03:43:12;;;;;;;;;;;;;;;;;;5053109;28;948;-48
2022/11/10 03:45:58;;;;;;;;;;;;;;;;;;5052472;28;1143;-46
2022/11/10 03:48:44;;;;;;;;;;;;;;;;;;5052341;28;1181;-46
2022/11/10 03:51:36;;;;;;;;;;;;;;;;;;5052455;28;984;-46
2022/11/10 03:54:22;;;;;;;;;;;;;;;;;;5052383;28;1359;-43
2022/11/10 03:57:07;;;;;;;;;;;;;;;;;;5052182;28;1351;-47
2022/11/10 03:59:53;;;;;;;;;;;;;;;;;;5052046;28;2027;-44
2022/11/10 04:02:39;;;;;;;;;;;;;;;;;;5052450;28;1446;-48
2022/11/10 04:17:47;;;;;;;;;;;;;;;;;;5052206;28;1183;-47
2022/11/10 04:20:32;;;;;;;;;;;;;;;;;;5051757;28;1127;-46
2022/11/10 04:23:29;;;;;;;;;;;;;;;;;;5051903;28;1327;-47
2022/11/10 04:26:28;;;;;;;;;;;;;;;;;;5050699;28;1988;-45
2022/11/10 04:29:16;;;;;;;;;;;;;;;;;;5051710;28;1099;-43
2022/11/10 04:32:02;;;;;;;;;;;;;;;;;;5051854;28;991;-48
2022/11/10 04:34:48;;;;;;;;;;;;;;;;;;5051628;28;1055;-48
2022/11/10 04:37:34;;;;;;;;;;;;;;;;;;5051721;28;1334;-47
2022/11/10 04:40:20;;;;;;;;;;;;;;;;;;5051269;28;1963;-47
2022/11/10 04:43:05;;;;;;;;;;;;;;;;;;5050630;28;1229;-48
2022/11/10 04:45:52;;;;;;;;;;;;;;;;;;5051301;28;1195;-47
2022/11/10 04:48:38;;;;;;;;;;;;;;;;;;5051289;28;1066;-46
2022/11/10 04:51:25;;;;;;;;;;;;;;;;;;5051159;28;955;-50
2022/11/10 04:54:11;;;;;;;;;;;;;;;;;;5051308;28;1486;-47
2022/11/10 04:56:56;;;;;;;;;;;;;;;;;;5050216;28;1198;-46
2022/11/10 04:59:44;;;;;;;;;;;;;;;;;;5051084;28;1977;-46
2022/11/10 05:02:30;;;;;;;;;;;;;;;;;;5051050;28;1204;-47
2022/11/10 05:05:20;;;;;;;;;;;;;;;;;;5051173;28;1203;-46
2022/11/10 05:08:06;;;;;;;;;;;;;;;;;;5051148;28;905;-46
2022/11/10 05:10:51;;;;;;;;;;;;;;;;;;5051165;28;1141;-46
2022/11/10 05:13:37;;;;;;;;;;;;;;;;;;5031037;28;1367;-47
2022/11/10 05:16:23;;;;;;;;;;;;;;;;;;5031100;28;1337;-50
2022/11/10 05:19:09;;;;;;;;;;;;;;;;;;5031095;28;1976;-45
2022/11/10 05:21:55;;;;;;;;;;;;;;;;;;5031059;28;1095;-46
2022/11/10 05:24:41;;;;;;;;;;;;;;;;;;5030913;28;1143;-47
2022/11/10 05:27:28;;;;;;;;;;;;;;;;;;5030997;28;1090;-46
2022/11/10 05:30:15;;;;;;;;;;;;;;;;;;5031067;28;1150;-48
2022/11/10 05:33:01;;;;;;;;;;;;;;;;;;5030944;28;1606;-47
2022/11/10 05:35:47;;;;;;;;;;;;;;;;;;5030946;28;1381;-45
2022/11/10 05:38:33;;;;;;;;;;;;;;;;;;5030719;28;1914;-48
2022/11/10 05:41:24;;;;;;;;;;;;;;;;;;5030967;28;1234;-49
2022/11/10 05:44:10;;;;;;;;;;;;;;;;;;5031108;28;1019;-47
2022/11/10 05:46:56;;;;;;;;;;;;;;;;;;5029722;28;949;-47
2022/11/10 05:49:42;;;;;;;;;;;;;;;;;;5030898;28;1175;-48
2022/11/10 05:52:28;;;;;;;;;;;;;;;;;;5031675;28;1387;-45
2022/11/10 05:55:14;;;;;;;;;;;;;;;;;;5052172;28;1114;-46
2022/11/10 05:58:00;;;;;;;;;;;;;;;;;;5054489;28;1250;-46
2022/11/10 06:00:46;;;;;;;;;;;;;;;;;;5054664;28;985;-44
2022/11/10 06:03:32;;;;;;;;;;;;;;;;;;5054567;28;1403;-46
2022/11/10 06:06:19;;;;;;;;;;;;;;;;;;5054416;28;1094;-44
2022/11/10 06:09:05;;;;;;;;;;;;;;;;;;5054567;28;1091;-48
2022/11/10 06:11:50;;;;;;;;;;;;;;;;;;5054575;28;1035;-48
2022/11/10 06:14:36;;;;;;;;;;;;;;;;;;5054070;28;1294;-47
2022/11/10 06:17:23;;;;;;;;;;;;;;;;;;5054318;28;1255;-47
2022/11/10 06:20:10;;;;;;;;;;;;;;;;;;5054304;28;1914;-50
2022/11/10 06:23:00;;;;;;;;;;;;;;;;;;5054152;28;1000;-48
2022/11/10 06:25:46;;;;;;;;;;;;;;;;;;5054147;28;1182;-48
2022/11/10 06:28:32;;;;;;;;;;;;;;;;;;5054138;28;1131;-46
2022/11/10 06:31:17;;;;;;;;;;;;;;;;;;5054040;28;1069;-47
2022/11/10 06:34:03;;;;;;;;;;;;;;;;;;5053972;28;1333;-47
2022/11/10 06:36:49;;;;;;;;;;;;;;;;;;5054262;28;957;-46
2022/11/10 06:39:35;;;;;;;;;;;;;;;;;;5053897;28;1910;-46
2022/11/10 06:42:21;;;;;;;;;;;;;;;;;;5053843;28;1215;-48
2022/11/10 06:45:07;;;;;;;;;;;;;;;;;;5052230;28;1204;-49
2022/11/10 06:48:04;;;;;;;;;;;;;;;;;;5053678;28;1245;-46
2022/11/10 06:50:50;;;;;;;;;;;;;;;;;;5053524;28;1053;-47
2022/11/10 06:53:36;;;;;;;;;;;;;;;;;;5053578;28;1352;-48
2022/11/10 06:56:22;;;;;;;;;;;;;;;;;;5053293;28;1335;-50
2022/11/10 06:59:08;;;;;;;;;;;;;;;;;;5053516;28;1906;-50
2022/11/10 07:01:54;;;;;;;;;;;;;;;;;;5053673;28;1080;-47
2022/11/10 07:04:41;;;;;;;;;;;;;;;;;;5053213;28;1000;-50
2022/11/10 07:07:27;;;;;;;;;;;;;;;;;;5052348;28;1014;-47
2022/11/10 07:10:13;;;;;;;;;;;;;;;;;;5053832;28;1148;-50
2022/11/10 07:13:01;;;;;;;;;;;;;;;;;;5050876;28;1195;-44
2022/11/10 07:15:51;;;;;;;;;;;;;;;;;;5052632;28;997;-49
2022/11/10 07:18:47;;;;;;;;;;;;;;;;;;5051825;28;1118;-44
2022/11/10 07:21:47;;;;;;;;;;;;;;;;;;5052710;28;1226;-43
2022/11/10 07:24:34;;;;;;;;;;;;;;;;;;5052544;28;1008;-44
2022/11/10 07:27:26;;;;;;;;;;;;;;;;;;5052983;28;944;-45
2022/11/10 07:30:16;;;;;;;;;;;;;;;;;;5051835;28;1162;-46
2022/11/10 07:33:06;;;;;;;;;;;;;;;;;;5052482;28;930;-45
2022/11/10 07:35:59;;;;;;;;;;;;;;;;;;5052593;28;1108;-45
2022/11/10 07:38:47;;;;;;;;;;;;;;;;;;5052641;28;1938;-48
2022/11/10 07:41:33;;;;;;;;;;;;;;;;;;5052540;28;911;-46
2022/11/10 07:44:21;;;;;;;;;;;;;;;;;;5050975;28;1333;-43
2022/11/10 07:47:09;;;;;;;;;;;;;;;;;;5052461;28;1301;-47
2022/11/10 07:49:55;;;;;;;;;;;;;;;;;;5052446;28;909;-45
2022/11/10 07:52:41;;;;;;;;;;;;;;;;;;5052062;28;1541;-46
2022/11/10 07:55:27;;;;;;;;;;;;;;;;;;5052341;28;1131;-47
2022/11/10 07:58:16;;;;;;;;;;;;;;;;;;5052435;28;1457;-50
2022/11/10 08:01:04;;;;;;;;;;;;;;;;;;5052244;28;1906;-47
2022/11/10 08:03:50;;;;;;;;;;;;;;;;;;5051996;28;987;-45
2022/11/10 08:06:35;;;;;;;;;;;;;;;;;;5052229;28;1100;-48
2022/11/10 08:09:21;;;;;;;;;;;;;;;;;;5052114;28;1198;-46
2022/11/10 08:12:07;;;;;;;;;;;;;;;;;;5051586;28;1353;-47
2022/11/10 08:14:53;;;;;;;;;;;;;;;;;;5051955;28;957;-48
2022/11/10 08:17:38;;;;;;;;;;;;;;;;;;5051550;28;1031;-48
2022/11/10 08:20:24;;;;;;;;;;;;;;;;;;5051958;28;1956;-46
2022/11/10 08:23:10;;;;;;;;;;;;;;;;;;5051490;28;1154;-47
2022/11/10 08:25:57;;;;;;;;;;;;;;;;;;5051313;28;1274;-46
2022/11/10 08:28:43;;;;;;;;;;;;;;;;;;5049994;28;1156;-44
2022/11/10 08:31:31;;;;;;;;;;;;;;;;;;5051420;28;980;-51
2022/11/10 08:34:17;;;;;;;;;;;;;;;;;;5051293;28;925;-43
2022/11/10 08:37:02;;;;;;;;;;;;;;;;;;5051684;28;937;-49
2022/11/10 08:39:48;;;;;;;;;;;;;;;;;;5031078;28;1930;-48
2022/11/10 08:42:33;;;;;;;;;;;;;;;;;;5036606;28;909;-49
2022/11/10 08:45:19;;;;;;;;;;;;;;;;;;5051270;28;981;-48
2022/11/10 08:48:16;;;;;;;;;;;;;;;;;;5050220;28;977;-47
2022/11/10 08:51:02;;;;;;;;;;;;;;;;;;5050292;28;1275;-49
2022/11/10 08:53:48;;;;;;;;;;;;;;;;;;5051304;28;1372;-47
2022/11/10 08:56:33;;;;;;;;;;;;;;;;;;5051440;28;1270;-47
2022/11/10 08:59:19;;;;;;;;;;;;;;;;;;5050429;28;1902;-49
2022/11/10 09:02:07;;;;;;;;;;;;;;;;;;5050903;28;1165;-45
2022/11/10 09:04:53;;;;;;;;;;;;;;;;;;5051300;28;1160;-47
2022/11/10 09:07:43;;;;;;;;;;;;;;;;;;5051019;28;1259;-51
2022/11/10 09:10:29;;;;;;;;;;;;;;;;;;5050805;28;1198;-47
2022/11/10 09:13:15;;;;;;;;;;;;;;;;;;5050995;28;1159;-46
2022/11/10 09:16:02;;;;;;;;;;;;;;;;;;5050611;28;1051;-46
2022/11/10 09:18:47;;;;;;;;;;;;;;;;;;5050811;28;1067;-46
2022/11/10 09:21:33;;;;;;;;;;;;;;;;;;5050519;28;1966;-46
2022/11/10 09:24:19;;;;;;;;;;;;;;;;;;5050848;28;1154;-45
2022/11/10 09:27:05;;;;;;;;;;;;;;;;;;5050928;28;985;-45
2022/11/10 09:29:51;;;;;;;;;;;;;;;;;;5050012;28;1047;-47
2022/11/10 09:32:37;;;;;;;;;;;;;;;;;;5050694;28;1549;-46
2022/11/10 09:35:24;;;;;;;;;;;;;;;;;;5050767;28;992;-46
2022/11/10 09:38:10;;;;;;;;;;;;;;;;;;5050625;28;1326;-46
2022/11/10 09:41:11;;;;;;;;;;;;;;;;;;5050197;28;1910;-47
2022/11/10 09:43:57;;;;;;;;;;;;;;;;;;5050550;28;1337;-47
2022/11/10 09:46:53;;;;;;;;;;;;;;;;;;5050947;28;944;-47
2022/11/10 09:49:59;;;;;;;;;;;;;;;;;;5049903;28;1420;-48
2022/11/10 09:52:46;;;;;;;;;;;;;;;;;;5050541;28;1403;-47
2022/11/10 09:55:37;;;;;;;;;;;;;;;;;;5050083;28;1183;-45
2022/11/10 09:58:25;;;;;;;;;;;;;;;;;;5049684;28;1335;-46
2022/11/10 10:01:14;;;;;;;;;;;;;;;;;;5050478;28;2017;-49
2022/11/10 10:04:05;;;;;;;;;;;;;;;;;;5050506;28;1017;-45
2022/11/10 10:07:00;;;;;;;;;;;;;;;;;;5050438;28;967;-48
2022/11/10 10:09:59;;;;;;;;;;;;;;;;;;5050137;28;1045;-46
2022/11/10 10:13:03;;;;;;;;;;;;;;;;;;5050505;28;1321;-45
2022/11/10 10:16:09;;;;;;;;;;;;;;;;;;5050410;28;1379;-46
2022/11/10 10:19:01;;;;;;;;;;;;;;;;;;5049988;28;1091;-47
2022/11/10 10:21:54;;;;;;;;;;;;;;;;;;5050010;28;1914;-46
2022/11/10 10:24:40;;;;;;;;;;;;;;;;;;5050259;28;1016;-47
2022/11/10 10:27:27;;;;;;;;;;;;;;;;;;5050237;28;937;-45
2022/11/10 10:30:16;;;;;;;;;;;;;;;;;;5050781;28;883;-45
2022/11/10 10:33:09;;;;;;;;;;;;;;;;;;5049563;28;1155;-47
2022/11/10 10:35:55;;;;;;;;;;;;;;;;;;5049916;28;1684;-45
2022/11/10 10:38:42;;;;;;;;;;;;;;;;;;5049904;28;1197;-44
2022/11/10 10:41:29;;;;;;;;;;;;;;;;;;5049446;28;1905;-46
2022/11/10 10:44:16;;;;;;;;;;;;;;;;;;5053621;28;976;-47
2022/11/10 10:47:03;;;;;;;;;;;;;;;;;;5053269;28;1044;-47
2022/11/10 10:49:49;;;;;;;;;;;;;;;;;;5053403;28;1038;-46
2022/11/10 10:52:35;;;;;;;;;;;;;;;;;;5052328;28;1407;-46
2022/11/10 10:55:26;;;;;;;;;;;;;;;;;;5053450;28;1473;-49
2022/11/10 10:58:20;;;;;;;;;;;;;;;;;;5053359;28;1285;-47
2022/11/10 11:01:16;;;;;;;;;;;;;;;;;;5053463;28;1931;-46
2022/11/10 11:04:21;;;;;;;;;;;;;;;;;;5053185;28;904;-44
2022/11/10 11:07:22;;;;;;;;;;;;;;;;;;5053515;28;1273;-44
2022/11/10 11:10:24;;;;;;;;;;;;;;;;;;5053288;28;1430;-52
2022/11/10 11:13:15;;;;;;;;;;;;;;;;;;5053106;28;1183;-51
2022/11/10 11:16:08;;;;;;;;;;;;;;;;;;5053036;28;1059;-50
2022/11/10 11:18:57;;;;;;;;;;;;;;;;;;5052776;28;1212;-46
2022/11/10 11:22:01;;;;;;;;;;;;;;;;;;5052745;28;1906;-46
2022/11/10 11:24:56;;;;;;;;;;;;;;;;;;5052800;28;1119;-47
2022/11/10 11:28:02;;;;;;;;;;;;;;;;;;5052977;28;1043;-45
2022/11/10 11:30:54;;;;;;;;;;;;;;;;;;5052968;28;1014;-50
2022/11/10 11:33:39;;;;;;;;;;;;;;;;;;5052479;28;1103;-46
2022/11/10 11:36:25;;;;;;;;;;;;;;;;;;5052847;28;1097;-46
2022/11/10 11:39:21;;;;;;;;;;;;;;;;;;5052575;28;1411;-49
2022/11/10 11:42:07;;;;;;;;;;;;;;;;;;5052349;28;1920;-47
2022/11/10 11:45:11;;;;;;;;;;;;;;;;;;5051457;28;1047;-49
2022/11/10 11:47:59;;;;;;;;;;;;;;;;;;5052495;28;905;-48
2022/11/10 11:50:50;;;;;;;;;;;;;;;;;;5052497;28;1087;-48
2022/11/10 11:53:46;;;;;;;;;;;;;;;;;;5052105;28;1332;-49
2022/11/10 11:56:41;;;;;;;;;;;;;;;;;;5052272;28;1150;-48
2022/11/10 11:59:33;;;;;;;;;;;;;;;;;;5052043;28;1343;-47
2022/11/10 12:02:27;;;;;;;;;;;;;;;;;;5052280;28;1013;-51
2022/11/10 12:05:28;;;;;;;;;;;;;;;;;;5052288;28;959;-49
2022/11/10 12:08:17;;;;;;;;;;;;;;;;;;5052506;28;1011;-48
2022/11/10 12:11:13;;;;;;;;;;;;;;;;;;5052170;28;1110;-52
2022/11/10 12:14:11;;;;;;;;;;;;;;;;;;5052104;28;1199;-48
2022/11/10 12:17:04;;;;;;;;;;;;;;;;;;5051874;28;1243;-49
2022/11/10 12:19:50;;;;;;;;;;;;;;;;;;5051906;28;1212;-48
2022/11/10 12:22:36;;;;;;;;;;;;;;;;;;5051943;28;1007;-49
2022/11/10 12:25:25;;;;;;;;;;;;;;;;;;5051664;28;1406;-51
2022/11/10 12:28:37;;;;;;;;;;;;;;;;;;5052041;28;1052;-47
2022/11/10 12:31:24;;;;;;;;;;;;;;;;;;5051642;28;1021;-52
2022/11/10 12:34:25;;;;;;;;;;;;;;;;;;5051810;28;1183;-49
2022/11/10 12:37:15;;;;;;;;;;;;;;;;;;5050845;28;973;-47
2022/11/10 12:40:18;;;;;;;;;;;;;;;;;;5051484;28;1914;-49
2022/11/10 12:43:05;;;;;;;;;;;;;;;;;;5051507;28;1120;-51
2022/11/10 12:46:00;;;;;;;;;;;;;;;;;;5051710;28;1012;-51
2022/11/10 12:49:04;;;;;;;;;;;;;;;;;;5051677;28;1301;-52
2022/11/10 12:52:08;;;;;;;;;;;;;;;;;;5051422;28;1080;-49
2022/11/10 12:54:54;;;;;;;;;;;;;;;;;;5031399;28;1053;-50
2022/11/10 12:57:42;;;;;;;;;;;;;;;;;;5031400;28;1315;-52
2022/11/10 13:00:31;;;;;;;;;;;;;;;;;;5031290;28;1914;-47
2022/11/10 13:03:28;;;;;;;;;;;;;;;;;;5031345;28;1133;-51
2022/11/10 13:06:32;;;;;;;;;;;;;;;;;;5044702;28;1222;-49
2022/11/10 13:09:25;;;;;;;;;;;;;;;;;;5050805;28;1020;-47
2022/11/10 13:12:15;;;;;;;;;;;;;;;;;;5051257;28;1116;-47
2022/11/10 13:15:23;;;;;;;;;;;;;;;;;;5051007;28;1226;-48
2022/11/10 13:18:30;;;;;;;;;;;;;;;;;;5049234;28;1276;-47
2022/11/10 13:21:16;;;;;;;;;;;;;;;;;;5031057;28;1912;-48
2022/11/10 13:24:03;;;;;;;;;;;;;;;;;;5031026;28;969;-49
2022/11/10 13:27:00;;;;;;;;;;;;;;;;;;5031184;28;1109;-46
2022/11/10 13:29:49;;;;;;;;;;;;;;;;;;5031061;28;1391;-47
2022/11/10 13:32:35;;;;;;;;;;;;;;;;;;5030835;28;1180;-49
2022/11/10 13:35:28;;;;;;;;;;;;;;;;;;5033653;28;1142;-52
2022/11/10 13:38:39;;;;;;;;;;;;;;;;;;5050703;28;894;-50
2022/11/10 13:41:29;;;;;;;;;;;;;;;;;;5050358;28;1962;-47
2022/11/10 13:44:23;;;;;;;;;;;;;;;;;;5050963;28;937;-50
2022/11/10 13:47:09;;;;;;;;;;;;;;;;;;5050701;28;1080;-50
2022/11/10 13:49:54;;;;;;;;;;;;;;;;;;5050827;28;1192;-51
2022/11/10 13:52:50;;;;;;;;;;;;;;;;;;5050356;28;1411;-47
2022/11/10 13:55:59;;;;;;;;;;;;;;;;;;5050735;28;1173;-47
2022/11/10 13:58:45;;;;;;;;;;;;;;;;;;5050617;28;1088;-49
2022/11/10 14:01:31;;;;;;;;;;;;;;;;;;5050457;28;1909;-49
2022/11/10 14:04:35;;;;;;;;;;;;;;;;;;5050626;28;1146;-50
2022/11/10 14:07:22;;;;;;;;;;;;;;;;;;5050422;28;1185;-48
2022/11/10 14:10:18;;;;;;;;;;;;;;;;;;5050615;28;980;-48
2022/11/10 14:13:10;;;;;;;;;;;;;;;;;;5050398;28;986;-48
2022/11/10 14:15:56;;;;;;;;;;;;;;;;;;5052020;28;1396;-47
2022/11/10 14:18:51;;;;;;;;;;;;;;;;;;5054163;28;949;-48
2022/11/10 14:21:45;;;;;;;;;;;;;;;;;;5054077;28;1982;-47
2022/11/10 14:24:35;;;;;;;;;;;;;;;;;;5054040;28;1055;-52
2022/11/10 14:27:24;;;;;;;;;;;;;;;;;;5054161;28;1017;-46
2022/11/10 14:30:23;;;;;;;;;;;;;;;;;;5053971;28;975;-49
2022/11/10 14:33:10;;;;;;;;;;;;;;;;;;5054046;28;1216;-51
2022/11/10 14:36:00;;;;;;;;;;;;;;;;;;5053874;28;1150;-50
2022/11/10 14:38:46;;;;;;;;;;;;;;;;;;5053898;28;1085;-46
2022/11/10 14:41:32;;;;;;;;;;;;;;;;;;5053753;28;1917;-48
2022/11/10 14:44:24;;;;;;;;;;;;;;;;;;5054038;28;966;-47
2022/11/10 14:47:21;;;;;;;;;;;;;;;;;;5053721;28;1198;-49
2022/11/10 14:50:13;;;;;;;;;;;;;;;;;;5053605;28;1272;-48
2022/11/10 14:53:01;;;;;;;;;;;;;;;;;;5053536;28;1336;-48
2022/11/10 14:55:49;;;;;;;;;;;;;;;;;;5053651;28;1117;-46
2022/11/10 14:58:40;;;;;;;;;;;;;;;;;;5053211;28;1211;-49
2022/11/10 15:01:34;;;;;;;;;;;;;;;;;;5052825;28;1918;-48
2022/11/10 15:04:23;;;;;;;;;;;;;;;;;;5052583;28;1000;-47
2022/11/10 15:07:09;;;;;;;;;;;;;;;;;;5053346;28;957;-47
2022/11/10 15:10:27;;;;;;;;;;;;;;;;;;5053428;28;1173;-46
2022/11/10 15:13:13;;;;;;;;;;;;;;;;;;5019605;28;1141;-49
2022/11/10 15:16:17;;;;;;;;;;;;;;;;;;5053161;28;1091;-52
2022/11/10 15:19:19;;;;;;;;;;;;;;;;;;5053237;28;1445;-50
2022/11/10 15:22:12;;;;;;;;;;;;;;;;;;5053129;28;1962;-47
2022/11/10 15:25:01;;;;;;;;;;;;;;;;;;5052363;28;1263;-46
2022/11/10 15:28:00;;;;;;;;;;;;;;;;;;5052098;28;1258;-46
2022/11/10 15:30:58;;;;;;;;;;;;;;;;;;5052792;28;996;-48
2022/11/10 15:33:49;;;;;;;;;;;;;;;;;;5053005;28;1250;-48
2022/11/10 15:36:41;;;;;;;;;;;;;;;;;;5052755;28;1132;-49
2022/11/10 15:39:31;;;;;;;;;;;;;;;;;;5052486;28;1041;-48
2022/11/10 15:42:20;;;;;;;;;;;;;;;;;;5052627;28;1915;-43
2022/11/10 15:45:05;;;;;;;;;;;;;;;;;;5052642;28;1009;-50
2022/11/10 15:47:51;;;;;;;;;;;;;;;;;;5052677;28;912;-50
2022/11/10 15:50:38;;;;;;;;;;;;;;;;;;5052791;28;1297;-49
2022/11/10 15:53:25;;;;;;;;;;;;;;;;;;5052745;28;1344;-48
2022/11/10 15:56:13;;;;;;;;;;;;;;;;;;5052589;28;1127;-47
2022/11/10 15:58:59;;;;;;;;;;;;;;;;;;5052114;28;1191;-49
2022/11/10 16:01:49;;;;;;;;;;;;;;;;;;5052459;28;1965;-47
2022/11/10 16:04:37;;;;;;;;;;;;;;;;;;5052407;28;1000;-50
2022/11/10 16:07:23;;;;;;;;;;;;;;;;;;5051973;28;1066;-50
2022/11/10 16:10:10;;;;;;;;;;;;;;;;;;5052240;28;929;-44
2022/11/10 16:12:57;;;;;;;;;;;;;;;;;;5051848;28;1148;-48
2022/11/10 16:15:46;;;;;;;;;;;;;;;;;;5051821;28;1349;-48
2022/11/10 16:18:32;;;;;;;;;;;;;;;;;;5052097;28;1220;-47
2022/11/10 16:21:20;;;;;;;;;;;;;;;;;;5051821;28;1906;-47
2022/11/10 16:24:06;;;;;;;;;;;;;;;;;;5052009;28;983;-49
2022/11/10 16:26:52;;;;;;;;;;;;;;;;;;5051718;28;1155;-48
2022/11/10 16:29:39;;;;;;;;;;;;;;;;;;5051983;28;1320;-47
2022/11/10 16:32:24;;;;;;;;;;;;;;;;;;5051657;28;961;-50
2022/11/10 16:35:11;;;;;;;;;;;;;;;;;;5051680;28;989;-48
2022/11/10 16:37:57;;;;;;;;;;;;;;;;;;5051512;28;1346;-44
2022/11/10 16:40:43;;;;;;;;;;;;;;;;;;5051651;28;1088;-48
2022/11/10 16:43:30;;;;;;;;;;;;;;;;;;5051518;28;1004;-47
2022/11/10 16:46:16;;;;;;;;;;;;;;;;;;5051677;28;1006;-50
2022/11/10 16:49:03;;;;;;;;;;;;;;;;;;5051634;28;1145;-48
2022/11/10 16:51:50;;;;;;;;;;;;;;;;;;5051492;28;1004;-48
2022/11/10 16:54:35;;;;;;;;;;;;;;;;;;5050310;28;1399;-48
2022/11/10 16:57:21;;;;;;;;;;;;;;;;;;5051405;28;1051;-48
2022/11/10 17:00:08;;;;;;;;;;;;;;;;;;5049757;28;1275;-51
2022/11/10 17:02:58;;;;;;;;;;;;;;;;;;5051312;28;1960;-52
2022/11/10 17:05:44;;;;;;;;;;;;;;;;;;5051299;28;1391;-46
2022/11/10 17:08:32;;;;;;;;;;;;;;;;;;5030976;28;1175;-47
2022/11/10 17:11:18;;;;;;;;;;;;;;;;;;5031218;28;1009;-48
2022/11/10 17:14:10;;;;;;;;;;;;;;;;;;5042948;28;984;-47
2022/11/10 17:16:55;;;;;;;;;;;;;;;;;;5031270;28;1287;-48
2022/11/10 17:19:41;;;;;;;;;;;;;;;;;;5030812;28;1256;-48
2022/11/10 17:22:30;;;;;;;;;;;;;;;;;;5030291;28;1874;-47
2022/11/10 17:25:26;;;;;;;;;;;;;;;;;;5030986;28;1107;-48
2022/11/10 17:28:13;;;;;;;;;;;;;;;;;;5030867;28;1433;-47
2022/11/10 17:30:59;;;;;;;;;;;;;;;;;;5031021;28;1010;-47
2022/11/10 17:33:45;;;;;;;;;;;;;;;;;;5030865;28;1133;-46
2022/11/10 17:36:33;;;;;;;;;;;;;;;;;;5030636;28;1014;-47
2022/11/10 17:39:18;;;;;;;;;;;;;;;;;;5030915;28;969;-47
2022/11/10 17:42:08;;;;;;;;;;;;;;;;;;5030855;28;1911;-48
2022/11/10 17:44:54;;;;;;;;;;;;;;;;;;5031055;28;1028;-49
2022/11/10 17:47:40;;;;;;;;;;;;;;;;;;5030620;28;998;-49
2022/11/10 17:50:26;;;;;;;;;;;;;;;;;;5031760;28;1184;-49
2022/11/10 17:53:12;;;;;;;;;;;;;;;;;;5041704;28;1408;-46
2022/11/10 17:55:58;;;;;;;;;;;;;;;;;;5054518;28;1147;-50
2022/11/10 17:58:44;;;;;;;;;;;;;;;;;;5054721;28;1265;-48
2022/11/10 18:01:30;;;;;;;;;;;;;;;;;;5054388;28;1977;-48
2022/11/10 18:04:15;;;;;;;;;;;;;;;;;;5054901;28;1358;-47
2022/11/10 18:07:01;;;;;;;;;;;;;;;;;;5053457;28;1137;-51
2022/11/10 18:09:47;;;;;;;;;;;;;;;;;;5054630;28;964;-50
2022/11/10 18:12:33;;;;;;;;;;;;;;;;;;5054358;28;932;-49
2022/11/10 18:15:19;;;;;;;;;;;;;;;;;;5054041;28;1326;-47
2022/11/10 18:18:08;;;;;;;;;;;;;;;;;;5054404;28;1120;-45
2022/11/10 18:20:55;;;;;;;;;;;;;;;;;;5054387;28;1275;-48
2022/11/10 18:23:42;;;;;;;;;;;;;;;;;;5054019;28;1914;-51
2022/11/10 18:26:27;;;;;;;;;;;;;;;;;;5054214;28;993;-47
2022/11/10 18:29:13;;;;;;;;;;;;;;;;;;5054260;28;1282;-47
2022/11/10 18:31:58;;;;;;;;;;;;;;;;;;5053837;28;1442;-48
2022/11/10 18:34:44;;;;;;;;;;;;;;;;;;5054457;28;1456;-48
2022/11/10 18:37:30;;;;;;;;;;;;;;;;;;5053816;28;952;-48
2022/11/10 18:40:18;;;;;;;;;;;;;;;;;;5054085;28;917;-46
2022/11/10 18:43:04;;;;;;;;;;;;;;;;;;5053871;28;1904;-47
2022/11/10 18:45:53;;;;;;;;;;;;;;;;;;5054173;28;999;-45
2022/11/10 18:48:40;;;;;;;;;;;;;;;;;;5053360;28;1178;-46
2022/11/10 18:51:26;;;;;;;;;;;;;;;;;;5053868;28;1019;-49
2022/11/10 18:54:12;;;;;;;;;;;;;;;;;;5053756;28;1320;-49
2022/11/10 18:56:57;;;;;;;;;;;;;;;;;;5053510;28;1015;-46
2022/11/10 18:59:44;;;;;;;;;;;;;;;;;;5053078;28;1217;-49
2022/11/10 19:02:30;;;;;;;;;;;;;;;;;;5032109;28;1914;-47
2022/11/10 19:05:16;;;;;;;;;;;;;;;;;;5033192;28;996;-49
2022/11/10 19:08:02;;;;;;;;;;;;;;;;;;5046421;28;1011;-46
2022/11/10 19:10:48;;;;;;;;;;;;;;;;;;5033408;28;1375;-48
2022/11/10 19:13:34;;;;;;;;;;;;;;;;;;5033306;28;1093;-48
2022/11/10 19:16:20;;;;;;;;;;;;;;;;;;5032869;28;1374;-46
2022/11/10 19:19:06;;;;;;;;;;;;;;;;;;5032923;28;976;-49
2022/11/10 19:21:52;;;;;;;;;;;;;;;;;;5045965;28;1976;-48
2022/11/10 19:24:38;;;;;;;;;;;;;;;;;;5033058;28;1112;-49
2022/11/10 19:27:44;;;;;;;;;;;;;;;;;;5033500;28;1080;-47
2022/11/10 19:30:29;;;;;;;;;;;;;;;;;;5032706;28;1208;-45
2022/11/10 19:33:15;;;;;;;;;;;;;;;;;;5032683;28;945;-47
2022/11/10 19:36:09;;;;;;;;;;;;;;;;;;5032888;28;976;-46
2022/11/10 19:38:55;;;;;;;;;;;;;;;;;;5032833;28;1477;-49
2022/11/10 19:41:42;;;;;;;;;;;;;;;;;;5032865;28;1903;-47
2022/11/10 19:44:29;;;;;;;;;;;;;;;;;;5032765;28;970;-48
2022/11/10 19:47:15;;;;;;;;;;;;;;;;;;5032808;28;1019;-50
2022/11/10 19:50:01;;;;;;;;;;;;;;;;;;5032742;28;1346;-47
2022/11/10 19:52:46;;;;;;;;;;;;;;;;;;5036239;28;1396;-48
2022/11/10 19:55:32;;;;;;;;;;;;;;;;;;5052177;28;966;-48
2022/11/10 19:58:19;;;;;;;;;;;;;;;;;;5052361;28;1100;-47